KAST/AST METAR and TAF weather

Enter ICAO airport designator
Station Type Date Time Source
KAST METAR 2020/09/20 14:19 UTC NOAA

KAST 201419Z AUTO 00000KT 10SM BKN022 OVC045 14/13 A3009 RMK AO2 T01390133


Station Type Date Time Source
KAST Decoded METAR 2020/09/20 14:19 UTC NOAA

PORT OF ASTORIA AIRPORT, OR, United States (KAST) 46-09N 123-53W 3M
Sep 20, 2020 - 10:19 AM EDT / 2020.09.20 1419 UTC
Wind: Calm:0
Visibility: 10 mile(s):0
Sky conditions: overcast
Temperature: 57.0 F (13.9 C)
Dew Point: 55.9 F (13.3 C)
Relative Humidity: 96%
Pressure (altimeter): 30.09 in. Hg (1018 hPa)
ob: KAST 201419Z AUTO 00000KT 10SM BKN022 OVC045 14/13 A3009 RMK AO2 T01390133
cycle: 14

Station Type Date Time Source
KAST TAF 2020/09/20 12:24 UTC NOAA

TAF KAST 201122Z 2012/2112 VRB03KT P6SM SCT015 BKN025 OVC040
FM201400 00000KT 6SM BR OVC015
FM201800 32005KT P6SM SCT020
FM210400 VRB03KT P6SM SCT250
FM211000 00000KT 6SM MIFG BKN003 OVC010

Example: see airport list